Time;durP1;ratioP1;P1;durP2;ratioP2;P2;SDS_P1;SDS_P2;PMS_P1;PMS_P2;Temp;Humidity;BMP_temperature;BMP_pressure;BME280_temperature;BME280_humidity;BME280_pressure;Samples;Min_cycle;Max_cycle;Signal;HPM_P1;HPM_P2
2023/01/24 00:00:08;;;;;;;12.43;8.63;;;5.50;99.90;;;;;;5071312;28;20115;-45
2023/01/24 00:02:33;;;;;;;11.00;8.23;;;5.40;99.90;;;;;;5071214;28;20040;-35
2023/01/24 00:04:59;;;;;;;14.02;8.95;;;5.50;99.90;;;;;;5072833;28;20028;-34
2023/01/24 00:07:24;;;;;;;12.13;8.45;;;5.70;99.90;;;;;;5070999;28;20490;-36
2023/01/24 00:09:50;;;;;;;11.95;8.50;;;5.90;99.90;;;;;;5071152;28;20119;-41
2023/01/24 00:12:16;;;;;;;11.35;7.75;;;6.10;99.90;;;;;;5071637;28;20114;-34
2023/01/24 00:14:41;;;;;;;12.65;8.30;;;6.20;99.90;;;;;;5077776;28;20082;-39
2023/01/24 00:17:10;;;;;;;10.55;7.97;;;6.20;99.90;;;;;;5077527;28;20025;-44
2023/01/24 00:19:35;;;;;;;11.90;8.57;;;6.20;99.90;;;;;;5079131;28;20469;-44
2023/01/24 00:22:03;;;;;;;11.35;8.32;;;6.20;99.90;;;;;;5077700;28;20024;-44
2023/01/24 00:24:29;;;;;;;10.45;8.13;;;6.10;99.90;;;;;;5077773;28;20055;-40
2023/01/24 00:26:55;;;;;;;11.52;8.02;;;6.00;99.90;;;;;;5077551;28;20029;-39
2023/01/24 00:29:21;;;;;;;11.07;8.13;;;6.00;99.90;;;;;;5077493;28;20032;-44
2023/01/24 00:31:46;;;;;;;11.80;8.10;;;5.90;99.90;;;;;;5077656;28;20021;-39
2023/01/24 00:34:12;;;;;;;13.15;9.18;;;5.80;99.90;;;;;;5077712;28;20025;-36
2023/01/24 00:36:37;;;;;;;13.95;8.52;;;5.80;99.90;;;;;;5077426;28;20364;-34
2023/01/24 00:39:03;;;;;;;12.20;8.60;;;5.70;99.90;;;;;;5077515;28;20028;-41
2023/01/24 00:41:29;;;;;;;11.80;8.02;;;5.70;99.90;;;;;;5077599;28;20032;-45
2023/01/24 00:43:55;;;;;;;12.82;8.27;;;5.60;99.90;;;;;;5077539;28;20020;-45
2023/01/24 00:46:20;;;;;;;12.63;9.00;;;5.60;99.90;;;;;;5077335;28;20024;-44
2023/01/24 00:48:46;;;;;;;13.27;8.27;;;5.60;99.90;;;;;;5077497;28;20103;-45
2023/01/24 00:51:12;;;;;;;13.68;8.93;;;5.50;99.90;;;;;;5078054;28;20044;-40
2023/01/24 00:53:37;;;;;;;12.80;9.30;;;5.50;99.90;;;;;;5078023;28;20028;-42
2023/01/24 00:56:03;;;;;;;11.65;8.38;;;5.50;99.90;;;;;;5077239;28;20043;-36
2023/01/24 00:58:29;;;;;;;14.80;9.95;;;5.50;99.90;;;;;;5077933;28;20036;-39
2023/01/24 01:00:56;;;;;;;12.65;8.77;;;5.40;99.90;;;;;;5078304;28;20066;-35
2023/01/24 01:03:22;;;;;;;11.15;8.38;;;5.40;99.90;;;;;;5077443;28;20070;-36
2023/01/24 01:05:48;;;;;;;11.30;8.73;;;5.60;99.90;;;;;;5077185;28;20031;-37
2023/01/24 01:08:14;;;;;;;12.43;8.98;;;5.70;99.90;;;;;;5077200;28;20436;-35
2023/01/24 01:10:40;;;;;;;12.25;8.20;;;6.00;99.90;;;;;;5076137;28;20506;-35
2023/01/24 01:13:06;;;;;;;12.57;8.77;;;6.20;99.90;;;;;;5077313;28;20024;-44
2023/01/24 01:15:32;;;;;;;12.48;8.70;;;6.30;99.90;;;;;;5077407;28;20025;-45
2023/01/24 01:17:58;;;;;;;12.13;8.52;;;6.20;99.90;;;;;;5077032;28;20433;-35
2023/01/24 01:20:24;;;;;;;12.00;8.27;;;6.20;99.90;;;;;;5077940;28;20039;-45
2023/01/24 01:22:50;;;;;;;12.10;8.77;;;6.10;99.90;;;;;;5077659;28;20079;-44
2023/01/24 01:25:16;;;;;;;12.45;9.00;;;6.10;99.90;;;;;;5073939;28;20029;-37
2023/01/24 01:27:41;;;;;;;13.13;8.30;;;6.00;99.90;;;;;;5074485;28;20057;-45
2023/01/24 01:30:08;;;;;;;11.98;8.52;;;5.90;99.90;;;;;;5073983;28;20109;-39
2023/01/24 01:32:33;;;;;;;12.52;8.70;;;5.80;99.90;;;;;;5073830;28;20502;-39
2023/01/24 01:34:59;;;;;;;12.95;8.80;;;5.80;99.90;;;;;;5073874;28;20028;-45
2023/01/24 01:37:25;;;;;;;13.10;9.02;;;5.70;99.90;;;;;;5073557;28;20402;-36
2023/01/24 01:39:50;;;;;;;13.50;9.27;;;5.70;99.90;;;;;;5073628;28;20107;-45
2023/01/24 01:42:16;;;;;;;12.25;8.38;;;5.70;99.90;;;;;;5073962;28;20028;-36
2023/01/24 01:44:46;;;;;;;11.10;8.38;;;5.60;99.90;;;;;;5073674;28;20039;-43
2023/01/24 01:47:27;;;;;;;13.48;8.85;;;5.60;99.90;;;;;;5073675;28;20427;-36
2023/01/24 01:50:23;;;;;;;11.38;7.93;;;5.50;99.90;;;;;;5073542;28;20481;-35
2023/01/24 01:52:49;;;;;;;12.38;8.57;;;5.50;99.90;;;;;;5073697;28;20020;-37
2023/01/24 01:55:19;;;;;;;12.32;8.73;;;5.50;99.90;;;;;;5073548;28;20017;-37
2023/01/24 01:57:48;;;;;;;12.77;8.75;;;5.50;99.90;;;;;;5073261;28;20530;-37
2023/01/24 02:00:17;;;;;;;12.45;8.48;;;5.50;99.90;;;;;;5073509;28;20029;-45
2023/01/24 02:02:47;;;;;;;12.65;8.40;;;5.40;99.90;;;;;;5073293;28;20437;-45
2023/01/24 02:05:17;;;;;;;13.77;9.27;;;5.50;99.90;;;;;;5073643;28;20428;-41
2023/01/24 02:07:58;;;;;;;13.20;8.45;;;5.70;99.90;;;;;;5073090;28;20070;-36
2023/01/24 02:11:37;;;;;;;11.13;8.30;;;5.90;99.90;;;;;;5073189;28;20039;-39
2023/01/24 02:13:12;;;;;;;12.13;8.23;;;6.20;99.90;;;;;;5072922;28;20028;-43
2023/01/24 02:18:21;;;;;;;12.73;8.73;;;6.30;99.90;;;;;;5073307;28;20093;-45
2023/01/24 02:20:48;;;;;;;10.40;7.80;;;6.30;99.90;;;;;;5073128;28;20502;-42
2023/01/24 02:23:51;;;;;;;13.25;8.20;;;6.20;99.90;;;;;;5072985;28;20020;-44
2023/01/24 02:26:20;;;;;;;13.32;8.70;;;6.10;99.90;;;;;;5072868;28;20024;-45
2023/01/24 02:28:50;;;;;;;10.45;8.18;;;6.00;99.90;;;;;;5073392;28;20536;-38
2023/01/24 02:31:15;;;;;;;12.55;8.48;;;6.00;99.90;;;;;;5072784;28;20502;-38
2023/01/24 02:33:41;;;;;;;12.10;8.52;;;5.90;99.90;;;;;;5073740;28;20130;-35
2023/01/24 02:36:24;;;;;;;11.98;8.60;;;5.80;99.90;;;;;;5073950;28;20052;-39
2023/01/24 02:39:12;;;;;;;12.82;9.45;;;5.70;99.90;;;;;;5072524;28;20482;-36
2023/01/24 02:42:10;;;;;;;13.63;8.60;;;5.70;99.90;;;;;;5073228;28;20359;-40
2023/01/24 02:44:51;;;;;;;12.02;8.57;;;5.60;99.90;;;;;;5072394;28;20025;-43
2023/01/24 02:47:17;;;;;;;12.82;8.63;;;5.60;99.90;;;;;;5072416;28;20020;-40
2023/01/24 02:49:42;;;;;;;12.35;8.45;;;5.60;99.90;;;;;;5072399;28;20038;-38
2023/01/24 02:54:53;;;;;;;12.23;8.77;;;5.50;99.90;;;;;;5072556;28;20108;-44
2023/01/24 03:00:06;;;;;;;12.38;8.90;;;5.50;99.90;;;;;;5072246;28;20030;-43
2023/01/24 03:02:31;;;;;;;14.40;9.98;;;5.50;99.90;;;;;;5071942;28;20036;-39
2023/01/24 03:04:57;;;;;;;12.25;8.80;;;5.50;99.90;;;;;;5072301;28;20478;-45
2023/01/24 03:07:23;;;;;;;13.02;8.77;;;5.70;99.90;;;;;;5071857;28;20024;-41
2023/01/24 03:09:48;;;;;;;12.15;8.27;;;5.90;99.90;;;;;;5071954;28;20475;-33
2023/01/24 03:36:53;;;;;;;11.60;8.45;;;5.80;99.90;;;;;;5072442;28;20570;-36
2023/01/24 03:42:03;;;;;;;13.50;9.23;;;5.70;99.90;;;;;;5071993;28;20051;-35
2023/01/24 03:44:29;;;;;;;13.13;9.02;;;5.70;99.90;;;;;;5071607;28;20486;-38
2023/01/24 03:46:55;;;;;;;14.05;9.65;;;5.60;99.90;;;;;;5071296;28;20051;-38
2023/01/24 03:54:48;;;;;;;12.90;9.15;;;5.50;99.90;;;;;;5071444;28;20035;-36
2023/01/24 03:57:14;;;;;;;15.70;9.55;;;5.50;99.90;;;;;;5071002;28;20029;-36
2023/01/24 03:59:40;;;;;;;13.85;9.50;;;5.50;99.90;;;;;;5071266;28;20024;-39
2023/01/24 04:02:05;;;;;;;12.98;9.05;;;5.50;99.90;;;;;;5071189;28;20028;-44
2023/01/24 04:05:12;;;;;;;13.40;9.40;;;5.50;99.90;;;;;;5071730;28;20444;-40
2023/01/24 04:07:16;;;;;;;15.02;9.95;;;5.60;99.90;;;;;;5071015;28;20525;-44
2023/01/24 04:09:42;;;;;;;14.40;9.90;;;5.90;99.90;;;;;;5071121;28;20068;-35
2023/01/24 04:12:08;;;;;;;13.88;9.27;;;6.10;99.90;;;;;;5071870;28;20139;-43
2023/01/24 04:14:33;;;;;;;15.85;9.80;;;6.30;99.90;;;;;;5071203;28;20078;-37
2023/01/24 04:16:59;;;;;;;13.48;8.55;;;6.40;99.90;;;;;;5069552;28;20033;-44
2023/01/24 04:19:24;;;;;;;15.30;9.70;;;6.40;99.90;;;;;;5071878;28;20071;-35
2023/01/24 04:21:50;;;;;;;14.57;9.80;;;6.40;99.90;;;;;;5071103;28;20024;-37
2023/01/24 04:24:15;;;;;;;14.25;9.10;;;6.30;99.90;;;;;;5071125;28;20390;-42
2023/01/24 04:26:41;;;;;;;14.60;9.25;;;6.20;99.90;;;;;;5070762;28;20031;-38
2023/01/24 04:29:07;;;;;;;14.82;9.30;;;6.10;99.90;;;;;;5071367;28;20359;-43
2023/01/24 04:31:32;;;;;;;14.02;9.23;;;6.00;99.90;;;;;;5070931;28;20437;-36
2023/01/24 04:33:58;;;;;;;15.43;9.48;;;6.00;99.90;;;;;;5071015;28;20024;-42
2023/01/24 04:36:23;;;;;;;16.33;10.98;;;5.90;99.90;;;;;;5070748;28;20487;-44
2023/01/24 04:38:49;;;;;;;13.88;9.60;;;5.80;99.90;;;;;;5070872;28;20033;-36
2023/01/24 04:41:14;;;;;;;14.82;10.10;;;5.80;99.90;;;;;;5071149;28;20131;-37
2023/01/24 04:43:40;;;;;;;14.48;9.75;;;5.70;99.90;;;;;;5069534;28;20028;-40
2023/01/24 04:46:06;;;;;;;13.48;9.23;;;5.70;99.90;;;;;;5070562;28;20063;-44
2023/01/24 04:48:32;;;;;;;15.00;9.95;;;5.60;99.90;;;;;;5070711;28;20497;-44
2023/01/24 04:50:59;;;;;;;14.27;9.35;;;5.60;99.90;;;;;;5070827;28;20410;-44
2023/01/24 04:53:25;;;;;;;14.50;9.40;;;5.60;99.90;;;;;;5071294;28;20153;-40
2023/01/24 04:55:51;;;;;;;15.25;9.70;;;5.50;99.90;;;;;;5070587;28;20060;-38
2023/01/24 04:58:16;;;;;;;14.55;9.73;;;5.50;99.90;;;;;;5070571;28;20106;-38
2023/01/24 05:00:42;;;;;;;15.85;9.98;;;5.50;99.90;;;;;;5072568;28;20364;-44
2023/01/24 05:03:08;;;;;;;16.10;10.65;;;5.50;99.90;;;;;;5075065;28;20031;-44
2023/01/24 05:05:33;;;;;;;14.27;9.77;;;5.50;99.90;;;;;;5074781;28;20025;-37
2023/01/24 05:07:59;;;;;;;14.02;9.13;;;5.70;99.90;;;;;;5074653;28;20032;-44
2023/01/24 05:10:25;;;;;;;16.05;9.48;;;6.00;99.90;;;;;;5074267;28;20047;-33
2023/01/24 05:12:50;;;;;;;13.77;9.75;;;6.20;99.90;;;;;;5074219;28;20021;-37
2023/01/24 05:15:17;;;;;;;13.23;9.27;;;6.40;99.90;;;;;;5076141;28;20075;-44
2023/01/24 05:17:44;;;;;;;15.57;9.57;;;6.40;99.90;;;;;;5074324;28;20086;-37
2023/01/24 05:20:10;;;;;;;13.13;8.73;;;6.40;99.90;;;;;;5074086;28;20031;-45
2023/01/24 05:22:36;;;;;;;12.93;8.70;;;6.40;99.90;;;;;;5075070;28;20031;-41
2023/01/24 05:25:01;;;;;;;14.07;9.63;;;6.30;99.90;;;;;;5074090;28;20028;-35
2023/01/24 05:27:27;;;;;;;14.70;9.85;;;6.20;99.90;;;;;;5073717;28;20036;-42
2023/01/24 05:29:53;;;;;;;12.88;8.93;;;6.10;99.90;;;;;;5074279;28;20107;-37
2023/01/24 05:32:18;;;;;;;15.02;10.27;;;6.00;99.90;;;;;;5073941;28;20095;-35
2023/01/24 05:34:44;;;;;;;12.75;8.93;;;5.90;99.90;;;;;;5073978;28;20428;-35
2023/01/24 05:37:09;;;;;;;14.18;9.63;;;5.90;99.90;;;;;;5073666;28;20036;-44
2023/01/24 05:39:35;;;;;;;13.35;8.93;;;5.80;99.90;;;;;;5073788;28;20032;-41
2023/01/24 05:42:00;;;;;;;14.80;9.48;;;5.80;99.90;;;;;;5074238;28;20052;-41
2023/01/24 05:44:26;;;;;;;14.00;9.20;;;5.70;99.90;;;;;;5074978;28;20031;-45
2023/01/24 05:46:52;;;;;;;15.52;10.02;;;5.70;99.90;;;;;;5074783;28;20037;-44
2023/01/24 05:49:17;;;;;;;15.85;10.15;;;5.60;99.90;;;;;;5073508;28;20021;-44
2023/01/24 05:51:43;;;;;;;14.95;9.85;;;5.60;99.90;;;;;;5073674;28;20036;-35
2023/01/24 05:54:09;;;;;;;14.70;10.05;;;5.60;99.90;;;;;;5073606;28;20032;-39
2023/01/24 05:56:34;;;;;;;14.18;9.88;;;5.50;99.90;;;;;;5073240;28;20130;-44
2023/01/24 05:59:01;;;;;;;15.60;10.45;;;5.50;99.90;;;;;;5073830;28;20106;-44
2023/01/24 06:01:28;;;;;;;15.77;10.23;;;5.50;99.90;;;;;;5073549;28;20072;-44
2023/01/24 06:03:54;;;;;;;15.48;9.90;;;5.50;99.90;;;;;;5073717;28;20535;-37
2023/01/24 06:06:21;;;;;;;16.30;10.55;;;5.60;99.90;;;;;;5073393;28;20040;-42
2023/01/24 06:08:47;;;;;;;13.73;9.68;;;5.80;99.90;;;;;;5073232;28;20127;-35
2023/01/24 06:11:15;;;;;;;16.67;10.55;;;6.10;99.90;;;;;;5072698;28;20518;-34
2023/01/24 06:13:42;;;;;;;13.98;9.40;;;6.30;99.90;;;;;;5073215;28;20052;-45
2023/01/24 06:16:14;;;;;;;14.20;9.50;;;6.40;99.90;;;;;;5073126;28;20084;-33
2023/01/24 06:18:40;;;;;;;13.63;9.20;;;6.40;99.90;;;;;;5073131;28;20037;-44
2023/01/24 06:21:16;;;;;;;14.70;9.70;;;6.40;99.90;;;;;;5073084;28;20020;-43
2023/01/24 06:23:42;;;;;;;13.68;9.80;;;6.30;99.90;;;;;;5073019;28;20544;-44
2023/01/24 06:26:10;;;;;;;16.42;10.20;;;6.20;99.90;;;;;;5072815;28;20028;-36
2023/01/24 06:28:36;;;;;;;15.32;9.27;;;6.20;99.90;;;;;;5072837;28;20031;-39
2023/01/24 06:31:06;;;;;;;13.60;8.77;;;6.00;99.90;;;;;;5074169;28;20020;-37
2023/01/24 06:34:06;;;;;;;14.48;9.88;;;6.00;99.90;;;;;;5074251;28;20385;-44
2023/01/24 06:37:01;;;;;;;15.38;9.60;;;5.90;99.90;;;;;;5072536;28;20486;-36
2023/01/24 06:39:26;;;;;;;12.95;9.27;;;5.80;99.90;;;;;;5072732;28;20110;-36
2023/01/24 06:41:52;;;;;;;14.70;9.38;;;5.80;99.90;;;;;;5072643;28;20056;-44
2023/01/24 06:44:18;;;;;;;14.88;9.73;;;5.70;99.90;;;;;;5072579;28;20028;-36
2023/01/24 06:46:44;;;;;;;15.82;10.35;;;5.70;99.90;;;;;;5072712;28;20030;-45
2023/01/24 06:49:11;;;;;;;14.77;9.90;;;5.60;99.90;;;;;;5072345;28;20111;-36
2023/01/24 06:51:36;;;;;;;17.85;10.27;;;5.60;99.90;;;;;;5072783;28;20112;-44
2023/01/24 06:54:02;;;;;;;15.52;10.13;;;5.60;99.90;;;;;;5072395;28;20447;-43
2023/01/24 06:56:28;;;;;;;16.67;10.27;;;5.60;99.90;;;;;;5072090;28;20085;-36
2023/01/24 06:58:53;;;;;;;16.02;9.73;;;5.50;99.90;;;;;;5072030;28;20028;-37
2023/01/24 07:01:19;;;;;;;15.02;9.27;;;5.50;99.90;;;;;;5072229;28;20471;-36
2023/01/24 07:03:45;;;;;;;16.85;11.25;;;5.50;99.90;;;;;;5072420;28;20036;-36
2023/01/24 07:06:11;;;;;;;14.32;9.45;;;5.60;99.90;;;;;;5072080;28;20048;-44
2023/01/24 07:08:36;;;;;;;15.98;10.65;;;5.80;99.90;;;;;;5071953;28;20092;-35
2023/01/24 07:11:02;;;;;;;14.45;10.02;;;6.00;99.90;;;;;;5072050;28;20016;-39
2023/01/24 07:13:28;;;;;;;14.82;9.77;;;6.30;99.90;;;;;;5071992;28;20043;-41
2023/01/24 07:15:53;;;;;;;15.73;9.80;;;6.40;99.90;;;;;;5071684;28;20100;-44
2023/01/24 07:18:20;;;;;;;16.10;9.93;;;6.40;99.90;;;;;;5071862;28;20179;-44
2023/01/24 07:20:46;;;;;;;14.60;9.82;;;6.40;99.90;;;;;;5071940;28;20529;-45
2023/01/24 07:23:24;;;;;;;14.23;9.65;;;6.30;99.90;;;;;;5071184;28;20028;-45
2023/01/24 07:25:51;;;;;;;19.25;10.98;;;6.30;99.90;;;;;;5072910;28;20514;-36
2023/01/24 07:28:17;;;;;;;15.50;10.38;;;6.20;99.90;;;;;;5071472;28;20032;-40
2023/01/24 07:30:44;;;;;;;17.23;10.23;;;6.10;99.90;;;;;;5071823;28;20028;-44
2023/01/24 07:33:11;;;;;;;15.75;9.93;;;6.00;99.90;;;;;;5071713;28;20059;-35
2023/01/24 07:35:37;;;;;;;17.33;10.32;;;5.90;99.90;;;;;;5070200;28;20432;-43
2023/01/24 07:38:03;;;;;;;15.38;9.65;;;5.80;99.90;;;;;;5071328;28;20016;-44
2023/01/24 07:40:28;;;;;;;16.63;10.73;;;5.80;99.90;;;;;;5071520;28;20112;-35
2023/01/24 07:42:54;;;;;;;16.63;10.05;;;5.70;99.90;;;;;;5071343;28;20035;-40
2023/01/24 07:45:20;;;;;;;16.50;9.98;;;5.70;99.90;;;;;;5072139;28;20036;-39
2023/01/24 07:47:45;;;;;;;14.90;10.30;;;5.70;99.90;;;;;;5071521;28;20103;-36
2023/01/24 07:50:11;;;;;;;15.85;10.20;;;5.60;99.90;;;;;;5071332;28;20028;-37
2023/01/24 07:52:37;;;;;;;17.15;10.95;;;5.60;99.90;;;;;;5071442;28;20040;-44
2023/01/24 07:55:03;;;;;;;14.88;9.65;;;5.50;99.90;;;;;;5071646;28;20028;-44
2023/01/24 07:57:28;;;;;;;17.23;11.10;;;5.50;99.90;;;;;;5070948;28;20026;-44
2023/01/24 07:59:54;;;;;;;15.32;9.95;;;5.50;99.90;;;;;;5071272;28;20021;-36
2023/01/24 08:02:20;;;;;;;17.83;11.32;;;5.50;99.90;;;;;;5071329;28;20032;-41
2023/01/24 08:04:45;;;;;;;16.20;10.48;;;5.50;99.90;;;;;;5071718;28;20026;-44
2023/01/24 08:07:16;;;;;;;15.10;10.02;;;5.50;99.90;;;;;;5071083;28;20031;-36
2023/01/24 08:09:43;;;;;;;16.40;10.90;;;5.50;99.90;;;;;;5071092;28;20031;-40
2023/01/24 08:12:08;;;;;;;16.95;10.35;;;5.50;99.90;;;;;;5071598;28;20025;-42
2023/01/24 08:14:34;;;;;;;17.58;10.90;;;5.40;99.90;;;;;;5071237;28;20078;-35
2023/01/24 08:16:59;;;;;;;16.35;10.63;;;5.40;99.90;;;;;;5070986;28;20029;-33
2023/01/24 08:19:25;;;;;;;15.73;10.57;;;5.40;99.90;;;;;;5071248;28;20506;-36
2023/01/24 08:21:51;;;;;;;16.70;10.90;;;5.40;99.90;;;;;;5071589;28;20455;-37
2023/01/24 08:24:16;;;;;;;17.10;10.45;;;5.40;99.90;;;;;;5071176;28;20543;-44
2023/01/24 08:26:45;;;;;;;17.35;10.73;;;5.40;99.90;;;;;;5070801;28;20040;-43
2023/01/24 08:29:12;;;;;;;17.63;11.73;;;5.40;99.90;;;;;;5071934;28;20024;-44
2023/01/24 08:31:37;;;;;;;18.88;11.50;;;5.40;99.90;;;;;;5072181;28;20082;-41
2023/01/24 08:34:03;;;;;;;15.77;10.55;;;5.40;99.90;;;;;;5072224;28;20024;-37
2023/01/24 08:36:29;;;;;;;19.83;11.27;;;5.30;99.90;;;;;;5075084;28;20016;-45
2023/01/24 08:38:54;;;;;;;18.10;11.98;;;5.30;99.90;;;;;;5075180;28;20382;-44
2023/01/24 08:41:20;;;;;;;18.00;10.90;;;5.30;99.90;;;;;;5075254;28;20037;-44
2023/01/24 08:43:45;;;;;;;17.75;10.85;;;5.30;99.90;;;;;;5075523;28;20036;-43
2023/01/24 08:46:12;;;;;;;18.95;11.63;;;5.30;99.90;;;;;;5075538;28;20147;-36
2023/01/24 08:48:38;;;;;;;20.73;12.27;;;5.30;99.90;;;;;;5074715;28;20043;-37
2023/01/24 08:51:04;;;;;;;18.00;11.30;;;5.40;99.90;;;;;;5074789;28;20024;-43
2023/01/24 08:53:30;;;;;;;19.73;10.85;;;5.40;99.90;;;;;;5074606;28;20074;-43
2023/01/24 08:55:56;;;;;;;19.27;11.57;;;5.40;99.90;;;;;;5074279;28;20031;-39
2023/01/24 08:58:22;;;;;;;20.45;11.80;;;5.40;99.90;;;;;;5074446;28;20402;-44
2023/01/24 09:00:47;;;;;;;17.52;10.63;;;5.30;99.90;;;;;;5074631;28;20094;-44
2023/01/24 09:03:15;;;;;;;17.98;11.07;;;5.30;99.90;;;;;;5074580;28;20471;-44
2023/01/24 09:05:41;;;;;;;18.58;10.70;;;5.30;99.90;;;;;;5074408;28;20032;-35
2023/01/24 09:08:07;;;;;;;17.55;11.35;;;5.30;99.90;;;;;;5075420;28;20390;-35
2023/01/24 09:10:32;;;;;;;15.63;10.00;;;5.30;99.90;;;;;;5074868;28;20025;-45
2023/01/24 09:12:58;;;;;;;19.63;11.88;;;5.30;99.90;;;;;;5074578;28;20024;-44
2023/01/24 09:15:24;;;;;;;18.38;11.15;;;5.30;99.90;;;;;;5074292;28;20029;-44
2023/01/24 09:17:49;;;;;;;18.40;11.70;;;5.30;99.90;;;;;;5074140;28;20033;-36
2023/01/24 09:20:16;;;;;;;18.77;11.20;;;5.30;99.90;;;;;;5074850;28;20036;-40
2023/01/24 09:22:42;;;;;;;16.65;10.90;;;5.30;99.90;;;;;;5074044;28;20032;-39
2023/01/24 09:25:08;;;;;;;15.88;10.63;;;5.30;99.90;;;;;;5074091;28;20028;-41
2023/01/24 09:27:37;;;;;;;19.98;11.30;;;5.30;99.90;;;;;;5073802;28;20028;-35
2023/01/24 09:30:07;;;;;;;17.10;11.27;;;5.30;99.90;;;;;;5074329;28;20028;-45
2023/01/24 09:32:32;;;;;;;19.05;11.60;;;5.30;99.90;;;;;;5074017;28;20089;-44
2023/01/24 09:34:58;;;;;;;19.15;11.60;;;5.30;99.90;;;;;;5073984;28;20017;-44
2023/01/24 09:37:23;;;;;;;18.85;11.20;;;5.30;99.90;;;;;;5073529;28;20474;-38
2023/01/24 09:39:49;;;;;;;16.65;10.80;;;5.30;99.90;;;;;;5073742;28;20035;-44
2023/01/24 09:42:39;;;;;;;18.42;11.00;;;5.30;99.90;;;;;;5074077;28;20031;-45
2023/01/24 09:45:27;;;;;;;19.08;11.20;;;5.30;99.90;;;;;;5073529;28;20502;-34
2023/01/24 09:48:02;;;;;;;19.25;11.45;;;5.30;99.90;;;;;;5073432;28;20046;-45
2023/01/24 09:50:46;;;;;;;16.95;10.45;;;5.30;99.90;;;;;;5073542;28;20024;-35
2023/01/24 09:53:28;;;;;;;17.25;10.70;;;5.30;99.90;;;;;;5074137;28;20024;-45
2023/01/24 09:55:54;;;;;;;20.25;11.27;;;5.30;99.90;;;;;;5073359;28;20024;-45
2023/01/24 09:58:43;;;;;;;17.38;11.43;;;5.30;99.90;;;;;;5073190;28;20032;-39
2023/01/24 10:01:12;;;;;;;16.30;10.80;;;5.30;99.90;;;;;;5073382;28;20027;-33
2023/01/24 10:03:39;;;;;;;17.48;10.48;;;5.30;99.90;;;;;;5073436;28;20029;-43
2023/01/24 10:06:22;;;;;;;19.02;11.43;;;5.30;99.90;;;;;;5073160;28;20029;-38
2023/01/24 10:09:19;;;;;;;19.55;11.55;;;5.30;99.90;;;;;;5073643;28;20394;-38
2023/01/24 10:11:59;;;;;;;21.40;11.70;;;5.30;99.90;;;;;;5073357;28;20143;-37
2023/01/24 10:14:39;;;;;;;19.55;11.23;;;5.30;99.90;;;;;;5073259;28;20017;-44
2023/01/24 10:17:21;;;;;;;18.75;11.50;;;5.30;99.90;;;;;;5073199;28;20043;-41
2023/01/24 10:20:00;;;;;;;16.75;11.00;;;5.30;99.90;;;;;;5074288;28;20382;-38
2023/01/24 10:22:28;;;;;;;16.98;10.45;;;5.30;99.90;;;;;;5073780;28;20024;-37
2023/01/24 10:25:12;;;;;;;16.60;10.55;;;5.30;99.90;;;;;;5073225;28;20072;-39
2023/01/24 10:27:42;;;;;;;18.47;10.97;;;5.30;99.90;;;;;;5073086;28;20094;-37
2023/01/24 10:30:41;;;;;;;17.95;11.10;;;5.30;99.90;;;;;;5073143;28;20394;-36
2023/01/24 10:33:18;;;;;;;18.20;11.30;;;5.30;99.90;;;;;;5072670;28;20115;-44
2023/01/24 10:36:01;;;;;;;18.17;11.30;;;5.30;99.90;;;;;;5072515;28;20048;-37
2023/01/24 10:38:28;;;;;;;19.25;11.82;;;5.40;99.90;;;;;;5072651;28;20025;-45
2023/01/24 10:40:56;;;;;;;18.90;11.55;;;5.30;99.90;;;;;;5072733;28;20029;-44
2023/01/24 10:43:31;;;;;;;18.70;10.90;;;5.40;99.90;;;;;;5072615;28;20139;-45
2023/01/24 10:46:05;;;;;;;17.38;10.75;;;5.30;99.90;;;;;;5072380;28;20036;-43
2023/01/24 10:48:47;;;;;;;21.77;11.05;;;5.40;99.90;;;;;;5072480;28;20090;-44
2023/01/24 10:51:18;;;;;;;16.55;10.80;;;5.30;99.90;;;;;;5072693;28;20032;-44
2023/01/24 10:53:45;;;;;;;15.98;10.32;;;5.30;99.90;;;;;;5072640;28;20032;-35
2023/01/24 10:56:12;;;;;;;16.58;11.20;;;5.30;99.90;;;;;;5072126;28;20379;-40
2023/01/24 10:59:00;;;;;;;17.05;10.57;;;5.30;99.90;;;;;;5072493;28;20127;-35
2023/01/24 11:01:58;;;;;;;17.77;11.10;;;5.30;99.90;;;;;;5072063;28;20031;-45
2023/01/24 11:04:29;;;;;;;16.20;10.20;;;5.30;99.90;;;;;;5071914;28;20123;-44
2023/01/24 11:06:55;;;;;;;17.13;10.75;;;5.40;99.90;;;;;;5072422;28;20021;-41
2023/01/24 11:09:27;;;;;;;16.98;10.88;;;5.30;99.90;;;;;;5071881;28;20086;-41
2023/01/24 11:11:55;;;;;;;17.38;10.40;;;5.30;99.90;;;;;;5072364;28;20396;-44
2023/01/24 11:14:23;;;;;;;16.02;10.85;;;5.40;99.90;;;;;;5072040;28;20027;-34
2023/01/24 11:16:55;;;;;;;15.98;10.02;;;5.30;99.90;;;;;;5071828;28;20021;-44
2023/01/24 11:19:39;;;;;;;17.73;10.45;;;5.30;99.90;;;;;;5071887;28;20039;-45
2023/01/24 11:22:22;;;;;;;;;;;5.30;99.90;;;;;;5072445;28;20075;-38
2023/01/24 11:24:48;;;;;;;18.05;10.30;;;5.40;99.90;;;;;;5071810;28;20292;-44
2023/01/24 11:27:19;;;;;;;15.02;10.20;;;5.40;99.90;;;;;;5072210;28;20028;-43
2023/01/24 11:30:02;;;;;;;17.67;10.25;;;5.30;99.90;;;;;;5071591;28;20032;-44
2023/01/24 11:32:51;;;;;;;15.00;9.68;;;5.40;99.90;;;;;;5071743;28;20035;-44
2023/01/24 11:35:26;;;;;;;16.20;10.57;;;5.40;99.90;;;;;;5072617;28;20055;-44
2023/01/24 11:38:03;;;;;;;16.60;10.20;;;5.40;99.90;;;;;;5071293;28;20024;-45
2023/01/24 11:40:34;;;;;;;17.65;10.63;;;5.40;99.90;;;;;;5071600;28;20039;-37
2023/01/24 11:43:41;;;;;;;16.25;9.75;;;5.30;99.90;;;;;;5071653;28;20555;-44
2023/01/24 11:46:12;;;;;;;14.40;9.48;;;5.40;99.90;;;;;;5071240;28;20036;-39
2023/01/24 11:48:58;;;;;;;15.65;10.07;;;5.40;99.90;;;;;;5071498;28;20032;-45
2023/01/24 11:51:36;;;;;;;14.98;9.90;;;5.40;99.90;;;;;;5071095;28;20048;-35
2023/01/24 11:54:25;;;;;;;15.68;9.80;;;5.40;99.90;;;;;;5071562;28;20111;-44
2023/01/24 11:57:04;;;;;;;17.00;10.48;;;5.30;99.90;;;;;;5071310;28;20036;-35
2023/01/24 11:59:50;;;;;;;18.00;10.27;;;5.40;99.90;;;;;;5071375;28;20032;-33
2023/01/24 12:02:59;;;;;;;17.40;9.70;;;5.40;99.90;;;;;;5071012;28;20025;-44
2023/01/24 12:05:39;;;;;;;13.90;9.48;;;5.40;99.90;;;;;;5071275;28;20484;-44
2023/01/24 12:08:31;;;;;;;15.40;9.93;;;5.40;99.90;;;;;;5070908;28;20029;-39
2023/01/24 12:11:01;;;;;;;15.07;9.70;;;5.40;99.90;;;;;;5070560;28;20128;-36
2023/01/24 12:13:44;;;;;;;15.27;9.98;;;5.40;99.90;;;;;;5071252;28;20021;-44
2023/01/24 12:16:28;;;;;;;13.00;9.10;;;5.40;99.90;;;;;;5071067;28;20074;-39
2023/01/24 12:19:12;;;;;;;15.52;9.70;;;5.40;99.90;;;;;;5071117;28;20035;-37
2023/01/24 12:21:38;;;;;;;14.32;9.27;;;5.40;99.90;;;;;;5071214;28;20099;-42
2023/01/24 12:24:22;;;;;;;12.63;8.90;;;5.40;99.90;;;;;;5071177;28;20120;-37
2023/01/24 12:26:52;;;;;;;15.63;9.60;;;5.40;99.90;;;;;;5071727;28;20024;-43
2023/01/24 12:29:21;;;;;;;13.85;9.38;;;5.40;99.90;;;;;;5070930;28;20032;-41
2023/01/24 12:32:10;;;;;;;14.80;9.50;;;5.40;99.90;;;;;;5070944;28;20095;-43
2023/01/24 12:34:49;;;;;;;15.88;10.10;;;5.40;99.90;;;;;;5070807;28;20114;-35
2023/01/24 12:37:36;;;;;;;14.93;9.57;;;5.40;99.90;;;;;;5070752;28;20028;-39
2023/01/24 12:40:17;;;;;;;13.02;9.05;;;5.40;99.90;;;;;;5070709;28;20025;-36
2023/01/24 12:42:48;;;;;;;13.68;8.57;;;5.40;99.90;;;;;;5070944;28;20474;-39
2023/01/24 12:45:24;;;;;;;16.38;9.32;;;5.40;99.90;;;;;;5071031;28;20059;-33
2023/01/24 12:48:05;;;;;;;15.25;9.10;;;5.40;99.90;;;;;;5070718;28;20025;-44
2023/01/24 12:50:56;;;;;;;15.30;9.32;;;5.40;99.90;;;;;;5070666;28;20569;-44
2023/01/24 12:53:34;;;;;;;14.23;8.88;;;5.40;99.90;;;;;;5071145;28;20020;-44
2023/01/24 12:56:07;;;;;;;13.82;9.07;;;5.40;99.90;;;;;;5070989;28;20107;-40
2023/01/24 12:58:37;;;;;;;13.75;8.60;;;5.40;99.90;;;;;;5070831;28;20154;-44
2023/01/24 13:01:27;;;;;;;13.68;8.75;;;5.40;99.90;;;;;;5070758;28;20052;-44
2023/01/24 13:04:28;;;;;;;14.40;8.98;;;5.40;99.90;;;;;;5070865;28;20020;-38
2023/01/24 13:07:10;;;;;;;15.43;9.32;;;5.40;99.90;;;;;;5071097;28;20075;-37
2023/01/24 13:10:04;;;;;;;14.63;9.52;;;5.40;99.90;;;;;;5070580;28;20060;-37
2023/01/24 13:12:31;;;;;;;13.88;8.65;;;5.40;99.90;;;;;;5070809;28;20035;-44
2023/01/24 13:15:13;;;;;;;12.38;8.68;;;5.40;99.90;;;;;;5070708;28;20025;-36
2023/01/24 13:18:11;;;;;;;13.80;8.75;;;5.40;99.90;;;;;;5070448;28;20095;-44
2023/01/24 13:20:51;;;;;;;12.30;8.02;;;5.40;99.90;;;;;;5071056;28;20024;-44
2023/01/24 13:23:42;;;;;;;15.90;9.18;;;5.40;99.90;;;;;;5074285;28;20024;-44
2023/01/24 13:26:47;;;;;;;13.25;8.80;;;5.40;99.90;;;;;;5074021;28;20033;-44
2023/01/24 13:29:38;;;;;;;13.50;8.25;;;5.40;99.90;;;;;;5074068;28;20016;-43
2023/01/24 13:32:14;;;;;;;13.70;8.25;;;5.40;99.90;;;;;;5074828;28;20028;-40
2023/01/24 13:34:47;;;;;;;13.48;8.77;;;5.40;99.90;;;;;;5074328;28;20039;-34
2023/01/24 13:37:19;;;;;;;12.98;8.15;;;5.40;99.90;;;;;;5073855;28;20397;-39
2023/01/24 13:39:46;;;;;;;12.38;7.85;;;5.40;99.90;;;;;;5073874;28;20390;-36
2023/01/24 13:42:12;;;;;;;16.35;9.20;;;5.40;99.90;;;;;;5073859;28;20070;-44